Matthewstown, North Carolina
Current Conditions -  °F | °C
As of 10:54 AM on Thursday 23 Oct 2014 (Local Time) from KGSO Reporting Station
Clear Clear  
Wind Chill: 57°   Ceiling: Unl
Heat Index: 57°   Visibility: 10mi
Dew Point: 40°   Wind: 12mph
Humidity: 53%   Direction: 330°NNW
Pressure: 30.06"   Gusts: 20mph
Location:  36.1188°N, 80.075°W
Report Text: KGSO 231454Z 33010G17KT 10SM CLR 14/04 A3006 RMK AO2 SLP175 T01390044 51008
Loading
Personal Weather Stations






























Interactive Weather Map
Tropical Storm Tracking
New forecast layout! Learn more

10-Day Weather Forecast

Advertisements
Track Severe Weather on mobile